Time;durP1;ratioP1;P1;durP2;ratioP2;P2;SDS_P1;SDS_P2;PMS_P1;PMS_P2;Temp;Humidity;BMP_temperature;BMP_pressure;BME280_temperature;BME280_humidity;BME280_pressure;Samples;Min_cycle;Max_cycle;Signal;HPM_P1;HPM_P2
2023/05/15 00:02:52;;;;;;;6.28;3.75;;;;;;;11.52;100.00;99398.19;12213495;19;20010;-80
2023/05/15 00:06:55;;;;;;;6.45;3.60;;;;;;;11.55;100.00;99398.50;12198436;19;20006;-80
2023/05/15 00:10:57;;;;;;;6.05;3.90;;;;;;;11.57;100.00;99398.22;12219643;19;20006;-83
2023/05/15 00:15:02;;;;;;;7.28;3.58;;;;;;;11.57;100.00;99401.81;12218009;19;20015;-83
2023/05/15 00:19:04;;;;;;;4.97;3.60;;;;;;;11.57;100.00;99404.59;12199364;19;20067;-81
2023/05/15 00:23:06;;;;;;;5.07;3.58;;;;;;;11.55;100.00;99403.19;12217805;19;20082;-81
2023/05/15 00:27:07;;;;;;;6.88;3.92;;;;;;;11.56;100.00;99399.31;12221002;19;20026;-83
2023/05/15 00:31:11;;;;;;;5.93;4.47;;;;;;;11.53;100.00;99402.59;12195964;19;20664;-81
2023/05/15 00:35:13;;;;;;;6.82;3.90;;;;;;;11.49;100.00;99401.50;12212910;19;21238;-81
2023/05/15 00:39:16;;;;;;;5.53;3.60;;;;;;;11.45;100.00;99400.34;12219319;19;20127;-82
2023/05/15 00:43:18;;;;;;;12.93;3.90;;;;;;;11.37;100.00;99390.66;12196042;19;20011;-82
2023/05/15 00:47:21;;;;;;;5.47;3.42;;;;;;;11.31;100.00;99395.28;12216176;19;20014;-82
2023/05/15 00:51:23;;;;;;;;;;;;;;;11.25;100.00;99393.59;12224780;19;20019;-83
2023/05/15 00:55:27;;;;;;;4.20;3.20;;;;;;;11.23;100.00;99383.94;12197045;19;19926;-79
2023/05/15 00:59:32;;;;;;;5.28;3.63;;;;;;;11.21;100.00;99384.19;12214768;19;20011;-84
2023/05/15 01:03:33;;;;;;;5.30;3.20;;;;;;;11.18;100.00;99377.28;12192272;19;20019;-84
2023/05/15 01:07:47;;;;;;;5.10;3.28;;;;;;;11.16;100.00;99375.88;12214003;19;20018;-83
2023/05/15 01:11:52;;;;;;;6.72;3.80;;;;;;;11.12;100.00;99383.00;12215067;19;20038;-83
2023/05/15 01:15:54;;;;;;;5.88;3.58;;;;;;;11.05;100.00;99383.22;12189068;19;20038;-84
2023/05/15 01:19:58;;;;;;;6.00;3.75;;;;;;;10.97;100.00;99383.72;12213205;19;20022;-83
2023/05/15 01:24:25;;;;;;;6.93;3.85;;;;;;;10.89;100.00;99390.56;12210988;19;20367;-83
2023/05/15 01:33:44;;;;;;;6.97;3.78;;;;;;;10.77;100.00;99398.16;12188393;19;20027;-83
2023/05/15 01:37:52;;;;;;;5.15;3.45;;;;;;;10.72;100.00;99395.34;12212519;19;20010;-79
2023/05/15 01:42:01;;;;;;;4.97;3.65;;;;;;;10.66;100.00;99391.72;12213267;19;20472;-83
2023/05/15 01:46:05;;;;;;;6.85;4.10;;;;;;;10.59;100.00;99396.63;12188122;19;20042;-84
2023/05/15 01:50:10;;;;;;;6.20;3.75;;;;;;;10.51;100.00;99394.31;12211012;19;20353;-82
2023/05/15 01:54:14;;;;;;;7.13;4.10;;;;;;;10.42;100.00;99395.88;12213701;19;20495;-82
2023/05/15 01:58:17;;;;;;;6.45;3.75;;;;;;;10.31;100.00;99394.91;12054663;19;2718445;-82
2023/05/15 02:02:19;;;;;;;4.90;3.67;;;;;;;10.24;100.00;99392.34;12216190;19;20006;-83
2023/05/15 02:06:23;;;;;;;6.17;4.10;;;;;;;10.17;100.00;99394.47;12215089;19;20024;-83
2023/05/15 02:10:27;;;;;;;7.85;4.55;;;;;;;10.08;100.00;99406.19;12188530;19;20271;-83
2023/05/15 02:14:31;;;;;;;6.38;4.05;;;;;;;9.97;100.00;99397.81;12223333;19;20011;-82
2023/05/15 02:18:32;;;;;;;6.15;5.00;;;;;;;9.92;100.00;99396.91;12191729;19;20015;-84
2023/05/15 02:22:34;;;;;;;8.57;5.53;;;;;;;9.87;100.00;99389.41;12221078;19;20775;-83
2023/05/15 02:27:01;;;;;;;7.20;5.33;;;;;;;9.87;100.00;99392.16;12231135;19;20006;-79
2023/05/15 02:31:17;;;;;;;6.50;4.95;;;;;;;9.85;100.00;99385.25;12216339;19;20014;-84
2023/05/15 02:35:51;;;;;;;7.97;5.28;;;;;;;9.81;100.00;99391.28;12220707;19;20034;-83
2023/05/15 02:39:56;;;;;;;8.30;5.85;;;;;;;9.80;100.00;99378.59;12192270;19;20018;-83
2023/05/15 02:43:59;;;;;;;8.48;5.88;;;;;;;9.81;100.00;99390.41;12213230;19;20019;-81
2023/05/15 02:48:01;;;;;;;;;;;;;;;9.71;100.00;99380.13;12213635;19;20034;-83
2023/05/15 02:52:04;;;;;;;8.25;5.22;;;;;;;9.72;100.00;99378.19;12189465;19;19919;-83
2023/05/15 02:56:06;;;;;;;9.52;5.85;;;;;;;9.76;100.00;99376.63;12206806;19;20003;-84
2023/05/15 03:00:12;;;;;;;6.75;4.88;;;;;;;9.80;100.00;99369.50;12212165;19;20011;-84
2023/05/15 03:04:14;;;;;;;9.00;5.38;;;;;;;9.80;100.00;99372.25;12192372;19;20613;-83
2023/05/15 03:08:16;;;;;;;5.30;3.83;;;;;;;9.73;100.00;99372.44;12210839;19;20022;-83
2023/05/15 03:12:17;;;;;;;7.60;5.25;;;;;;;9.68;100.00;99371.56;12210880;19;20014;-81
2023/05/15 03:16:19;;;;;;;5.90;4.70;;;;;;;9.66;100.00;99365.47;12187379;19;20021;-83
2023/05/15 03:20:21;;;;;;;7.40;4.65;;;;;;;9.70;100.00;99372.13;12210271;19;20014;-83
2023/05/15 03:24:23;;;;;;;7.15;4.43;;;;;;;9.74;100.00;99378.78;12205692;19;20007;-82
2023/05/15 03:28:24;;;;;;;8.57;5.20;;;;;;;9.77;100.00;99378.28;12187987;19;20006;-82
2023/05/15 03:32:26;;;;;;;7.28;5.00;;;;;;;9.86;100.00;99387.75;12217272;19;20010;-81
2023/05/15 03:36:28;;;;;;;8.20;5.60;;;;;;;9.97;100.00;99381.28;12197187;19;20021;-82
2023/05/15 03:40:29;;;;;;;10.43;6.82;;;;;;;10.04;100.00;99384.66;12221355;19;20009;-81
2023/05/15 03:44:32;;;;;;;9.45;6.70;;;;;;;10.11;100.00;99383.63;12217884;19;20018;-81
2023/05/15 03:48:33;;;;;;;8.80;5.93;;;;;;;10.15;100.00;99384.81;12200855;19;20575;-82
2023/05/15 03:52:39;;;;;;;12.82;6.68;;;;;;;10.18;100.00;99392.53;12220570;19;20262;-81
2023/05/15 03:56:43;;;;;;;10.45;6.47;;;;;;;10.19;100.00;99388.69;12218685;19;20543;-82
2023/05/15 04:00:44;;;;;;;10.00;6.53;;;;;;;10.13;100.00;99389.72;12195371;19;20010;-82
2023/05/15 04:04:46;;;;;;;10.98;7.10;;;;;;;10.10;100.00;99393.81;12218397;19;20019;-83
2023/05/15 04:08:48;;;;;;;10.32;6.50;;;;;;;10.12;100.00;99383.38;12218763;19;20010;-82
2023/05/15 04:12:50;;;;;;;9.67;6.20;;;;;;;10.13;100.00;99389.72;12196945;19;20011;-82
2023/05/15 04:16:52;;;;;;;10.52;7.00;;;;;;;10.12;100.00;99388.06;12216466;19;20006;-83
2023/05/15 04:20:54;;;;;;;10.38;6.65;;;;;;;10.12;100.00;99396.34;12216113;19;20003;-82
2023/05/15 04:24:55;;;;;;;10.18;7.10;;;;;;;10.13;100.00;99392.47;12193795;19;20049;-81
2023/05/15 04:28:58;;;;;;;9.93;6.82;;;;;;;10.12;100.00;99396.34;12215197;19;20067;-83
2023/05/15 04:33:05;;;;;;;10.18;6.65;;;;;;;10.14;100.00;99391.38;12217593;19;20017;-82
2023/05/15 04:37:06;;;;;;;11.35;7.15;;;;;;;10.16;100.00;99387.28;12198776;19;20471;-81
2023/05/15 04:41:08;;;;;;;11.52;6.57;;;;;;;10.19;100.00;99391.44;12216089;19;20003;-82
2023/05/15 04:45:10;;;;;;;11.05;7.80;;;;;;;10.22;100.00;99388.19;12231243;19;20039;-80
2023/05/15 04:49:12;;;;;;;8.50;5.85;;;;;;;10.27;100.00;99393.78;12222942;19;20406;-79
2023/05/15 04:53:13;;;;;;;10.40;6.32;;;;;;;10.32;100.00;99391.09;12228500;19;20041;-84
2023/05/15 04:57:16;;;;;;;9.05;6.25;;;;;;;10.37;100.00;99382.88;12222890;19;20352;-83
2023/05/15 05:01:17;;;;;;;10.10;5.90;;;;;;;10.44;100.00;99380.75;12199298;19;20046;-82
2023/05/15 05:05:19;;;;;;;7.72;5.47;;;;;;;10.52;100.00;99390.47;12220570;19;20028;-84
2023/05/15 05:09:21;;;;;;;9.55;5.68;;;;;;;10.58;100.00;99388.59;12219755;19;20010;-83
2023/05/15 05:13:23;;;;;;;7.75;5.63;;;;;;;10.66;100.00;99396.41;12193950;19;20019;-84
2023/05/15 05:17:25;;;;;;;8.30;5.50;;;;;;;10.74;100.00;99395.94;12220953;19;20011;-82
2023/05/15 05:21:27;;;;;;;7.80;5.40;;;;;;;10.84;100.00;99387.75;12202537;19;20754;-82
2023/05/15 05:25:29;;;;;;;8.93;5.88;;;;;;;10.97;100.00;99386.47;12218134;19;20345;-83
2023/05/15 05:29:32;;;;;;;8.02;5.47;;;;;;;11.11;100.00;99397.91;12217070;19;20082;-83
2023/05/15 05:33:34;;;;;;;7.82;5.55;;;;;;;11.23;100.00;99398.53;12193149;19;20010;-83
2023/05/15 05:37:36;;;;;;;9.43;6.40;;;;;;;11.34;100.00;99407.72;12218748;19;20002;-83
2023/05/15 05:41:42;;;;;;;9.25;5.35;;;;;;;11.47;100.00;99406.44;12220024;19;20023;-83
2023/05/15 05:45:44;;;;;;;8.18;5.07;;;;;;;11.66;100.00;99399.41;12191812;19;20010;-81
2023/05/15 05:49:46;;;;;;;6.95;4.97;;;;;;;11.82;100.00;99403.88;12216526;19;20007;-83
2023/05/15 05:53:49;;;;;;;7.75;5.53;;;;;;;12.06;100.00;99400.72;12215247;19;20014;-81
2023/05/15 05:57:50;;;;;;;7.07;5.13;;;;;;;12.31;100.00;99405.50;12195413;19;20006;-82
2023/05/15 06:01:52;;;;;;;8.48;4.72;;;;;;;12.55;100.00;99403.06;12215131;19;20002;-82
2023/05/15 06:05:57;;;;;;;8.70;4.88;;;;;;;12.89;100.00;99405.38;12217127;19;20003;-82
2023/05/15 06:10:01;;;;;;;7.13;5.28;;;;;;;13.17;100.00;99402.03;12194351;19;20034;-82
2023/05/15 06:14:10;;;;;;;8.18;4.45;;;;;;;13.39;100.00;99404.56;12213178;19;20040;-81
2023/05/15 06:18:13;;;;;;;11.13;6.60;;;;;;;13.51;100.00;99401.50;12212867;19;20006;-82
2023/05/15 06:22:14;;;;;;;7.53;4.97;;;;;;;13.58;100.00;99401.22;12194288;19;20011;-81
2023/05/15 06:26:17;;;;;;;6.45;4.97;;;;;;;13.63;100.00;99406.75;12210968;19;20360;-83
2023/05/15 06:30:19;;;;;;;7.33;4.40;;;;;;;13.70;100.00;99398.97;12214787;19;20011;-82
2023/05/15 06:34:21;;;;;;;7.47;4.85;;;;;;;13.74;100.00;99404.78;12193182;19;20003;-83
2023/05/15 06:38:22;;;;;;;6.22;4.47;;;;;;;13.78;100.00;99406.72;12218886;19;20038;-81
2023/05/15 06:42:25;;;;;;;13.55;4.70;;;;;;;13.94;100.00;99410.25;12219509;19;20418;-80
2023/05/15 06:46:27;;;;;;;6.80;4.28;;;;;;;14.11;100.00;99412.69;12195683;19;20018;-82
2023/05/15 06:50:30;;;;;;;10.63;4.82;;;;;;;14.29;100.00;99411.25;12218093;19;20027;-82
2023/05/15 06:54:32;;;;;;;6.78;3.90;;;;;;;14.43;100.00;99411.47;12197096;19;20007;-82
2023/05/15 06:58:34;;;;;;;4.90;3.73;;;;;;;14.57;100.00;99413.34;12217263;19;20010;-81
2023/05/15 07:02:42;;;;;;;4.60;3.42;;;;;;;14.65;100.00;99420.22;12213758;19;20015;-82
2023/05/15 07:06:44;;;;;;;8.80;3.50;;;;;;;14.81;100.00;99420.94;12200522;19;20011;-81
2023/05/15 07:10:48;;;;;;;4.88;3.47;;;;;;;15.00;100.00;99421.94;12215372;19;20015;-82
2023/05/15 07:14:49;;;;;;;;;;;;;;;15.05;100.00;99418.31;12222459;19;20007;-82
2023/05/15 07:18:51;;;;;;;6.22;4.00;;;;;;;15.23;100.00;99416.78;12216205;19;19924;-81
2023/05/15 07:22:53;;;;;;;7.67;4.00;;;;;;;15.39;100.00;99409.97;12235539;19;20014;-80
2023/05/15 07:26:57;;;;;;;6.45;4.32;;;;;;;15.42;100.00;99417.72;12246176;19;20010;-81
2023/05/15 07:31:00;;;;;;;6.50;4.53;;;;;;;15.43;100.00;99412.97;12214168;19;20042;-80
2023/05/15 07:35:04;;;;;;;5.80;4.13;;;;;;;15.62;100.00;99415.88;12237042;19;20015;-81
2023/05/15 07:39:06;;;;;;;8.48;4.65;;;;;;;15.70;100.00;99418.03;12239625;19;20006;-80
2023/05/15 07:43:09;;;;;;;7.57;4.63;;;;;;;15.74;100.00;99415.50;12217327;19;20011;-82
2023/05/15 07:47:11;;;;;;;7.57;4.85;;;;;;;15.87;100.00;99401.72;12227886;19;20025;-80
2023/05/15 07:51:13;;;;;;;8.82;5.20;;;;;;;16.14;100.00;99403.09;12227425;19;20419;-80
2023/05/15 07:55:15;;;;;;;8.52;4.55;;;;;;;16.28;98.17;99408.78;12211539;19;20033;-80
2023/05/15 07:59:20;;;;;;;6.65;5.07;;;;;;;16.29;98.80;99393.75;12245732;19;20017;-80
2023/05/15 08:03:22;;;;;;;5.70;4.07;;;;;;;16.54;99.95;99387.84;12233821;19;20010;-81
2023/05/15 08:07:24;;;;;;;6.40;4.20;;;;;;;16.89;97.82;99387.63;12207509;19;20062;-80
2023/05/15 08:11:27;;;;;;;6.82;4.20;;;;;;;17.02;95.31;99379.34;12242638;19;20014;-81
2023/05/15 08:15:30;;;;;;;6.40;4.18;;;;;;;17.25;95.94;99379.53;12234135;19;20015;-81
2023/05/15 08:19:32;;;;;;;7.53;4.75;;;;;;;17.66;92.48;99376.84;12204073;19;20042;-80
2023/05/15 08:23:34;;;;;;;7.88;4.35;;;;;;;17.75;89.02;99380.56;12222945;19;20011;-79
2023/05/15 08:27:36;;;;;;;5.83;4.70;;;;;;;17.90;85.57;99384.22;12208699;19;20006;-80
2023/05/15 08:31:37;;;;;;;6.07;4.50;;;;;;;18.31;87.30;99384.22;12231699;19;20082;-80
2023/05/15 08:35:39;;;;;;;6.97;4.10;;;;;;;18.60;86.01;99383.03;12223794;19;20018;-79
2023/05/15 08:39:41;;;;;;;5.07;3.67;;;;;;;18.79;83.75;99388.47;12210403;19;20018;-80
2023/05/15 08:43:44;;;;;;;6.93;4.67;;;;;;;18.56;76.09;99385.63;12227197;19;20032;-79
2023/05/15 08:47:47;;;;;;;7.03;4.07;;;;;;;18.53;78.06;99380.69;12223966;19;20011;-81
2023/05/15 08:51:49;;;;;;;5.47;4.00;;;;;;;18.66;77.61;99379.00;12210524;19;20267;-79
2023/05/15 08:55:51;;;;;;;7.63;3.80;;;;;;;18.77;78.15;99387.97;12231320;19;20042;-80
2023/05/15 08:59:54;;;;;;;6.72;4.10;;;;;;;18.88;74.93;99376.25;12235933;19;20119;-80
2023/05/15 09:03:56;;;;;;;10.23;4.80;;;;;;;19.23;76.81;99375.69;12209147;19;20021;-80
2023/05/15 09:08:02;;;;;;;5.23;4.03;;;;;;;19.49;74.90;99368.31;12236611;19;20018;-80
2023/05/15 09:12:09;;;;;;;6.50;4.57;;;;;;;19.32;73.41;99373.78;12223420;19;20303;-80
2023/05/15 09:16:11;;;;;;;6.72;5.40;;;;;;;19.26;72.27;99375.88;12198190;19;20362;-80
2023/05/15 09:20:32;;;;;;;6.55;5.47;;;;;;;19.62;72.49;99374.13;12220953;19;20019;-80
2023/05/15 09:24:36;;;;;;;8.85;4.88;;;;;;;19.91;73.08;99368.88;12213298;19;20011;-82
2023/05/15 09:28:40;;;;;;;7.22;4.20;;;;;;;20.04;70.84;99367.09;12231948;19;20356;-80
2023/05/15 09:32:42;;;;;;;6.73;4.70;;;;;;;19.89;69.65;99364.75;12236538;19;20018;-81
2023/05/15 09:36:48;;;;;;;6.35;4.43;;;;;;;20.01;67.74;99364.97;12208331;19;20015;-81
2023/05/15 09:41:04;;;;;;;8.98;5.50;;;;;;;20.29;65.45;99364.72;12231462;19;20704;-81
2023/05/15 09:45:21;;;;;;;7.95;5.85;;;;;;;20.33;66.19;99360.94;12234462;19;20086;-80
2023/05/15 09:49:28;;;;;;;9.90;5.80;;;;;;;20.01;69.16;99362.97;12212331;19;20006;-80
2023/05/15 09:53:32;;;;;;;8.77;6.75;;;;;;;20.33;68.05;99354.53;12232641;19;20598;-81
2023/05/15 09:57:34;;;;;;;8.43;5.93;;;;;;;20.51;65.00;99345.00;12220017;19;20003;-81
2023/05/15 10:01:36;;;;;;;10.13;5.70;;;;;;;20.09;65.91;99340.97;12240138;19;20006;-81
2023/05/15 10:05:38;;;;;;;10.82;5.88;;;;;;;19.86;67.85;99352.22;12234926;19;20266;-79
2023/05/15 10:09:44;;;;;;;9.85;5.80;;;;;;;20.23;68.60;99339.69;12223001;19;20018;-80
2023/05/15 10:13:53;;;;;;;7.43;5.55;;;;;;;20.75;62.53;99332.53;12233403;19;20011;-81
2023/05/15 10:17:56;;;;;;;8.32;5.32;;;;;;;20.44;60.25;99342.69;12234928;19;20006;-80
2023/05/15 10:21:59;;;;;;;;;;;;;;;20.51;61.95;99331.00;12210681;19;20007;-80
2023/05/15 10:26:09;;;;;;;9.45;6.68;;;;;;;20.78;56.37;99320.69;12220910;19;20105;-82
2023/05/15 10:30:15;;;;;;;9.50;6.75;;;;;;;21.06;56.96;99319.19;12229992;19;20014;-82
2023/05/15 10:34:19;;;;;;;10.35;7.00;;;;;;;21.15;57.70;99307.97;12202523;19;20011;-81
2023/05/15 10:38:22;;;;;;;10.90;7.18;;;;;;;21.59;56.79;99308.69;12233049;19;20015;-81
2023/05/15 10:42:25;;;;;;;9.35;6.80;;;;;;;22.48;53.32;99305.91;12224145;19;20006;-83
2023/05/15 10:46:29;;;;;;;12.27;8.35;;;;;;;22.10;54.32;99289.97;12203562;19;20616;-81
2023/05/15 10:50:31;;;;;;;12.07;8.05;;;;;;;21.49;56.04;99293.06;12231467;19;20648;-82
2023/05/15 10:54:39;;;;;;;15.90;9.30;;;;;;;20.82;60.50;99291.72;12234696;19;20015;-81
2023/05/15 10:59:10;;;;;;;20.42;11.32;;;;;;;19.68;72.35;99306.63;12195640;19;20007;-79
2023/05/15 11:03:13;;;;;;;23.65;13.60;;;;;;;18.70;80.96;99306.63;12212274;19;20475;-84
2023/05/15 11:07:16;;;;;;;21.83;13.55;;;;;;;18.24;87.50;99304.91;12198679;19;20392;-84
2023/05/15 11:11:56;;;;;;;22.45;14.00;;;;;;;18.18;92.81;99299.44;12221315;19;20030;-82
2023/05/15 11:15:58;;;;;;;25.20;15.77;;;;;;;18.18;94.30;99293.84;12193799;19;20019;-83
2023/05/15 11:20:01;;;;;;;25.10;15.63;;;;;;;18.53;98.10;99290.56;12215897;19;21161;-82
2023/05/15 11:24:03;;;;;;;22.77;13.47;;;;;;;19.03;98.28;99288.50;12210391;19;20010;-83
2023/05/15 11:28:20;;;;;;;18.98;11.90;;;;;;;19.72;91.11;99276.03;12181926;19;20271;-84
2023/05/15 11:32:40;;;;;;;22.58;13.93;;;;;;;20.51;89.74;99274.22;12212462;19;20496;-83
2023/05/15 11:36:42;;;;;;;21.30;11.30;;;;;;;21.16;79.94;99274.00;12192192;19;20030;-81
2023/05/15 11:40:57;;;;;;;19.10;12.00;;;;;;;21.01;73.57;99282.94;12214776;19;20025;-80
2023/05/15 11:44:59;;;;;;;27.13;14.73;;;;;;;19.08;98.53;99279.16;12215683;19;20019;-81
2023/05/15 11:49:05;;;;;;;23.92;14.82;;;;;;;18.30;100.00;99272.97;12198181;19;19998;-82
2023/05/15 11:53:08;;;;;;;22.58;15.10;;;;;;;18.37;100.00;99267.78;12228920;19;20033;-83
2023/05/15 11:57:11;;;;;;;25.95;15.32;;;;;;;18.47;100.00;99270.31;12229011;19;20006;-83
2023/05/15 12:01:13;;;;;;;27.85;15.93;;;;;;;18.47;100.00;99261.94;12204756;19;20477;-83
2023/05/15 12:05:15;;;;;;;;;;;;;;;18.53;100.00;99262.66;12224951;19;20011;-83
2023/05/15 12:09:18;;;;;;;24.92;15.48;;;;;;;18.70;100.00;99256.38;12225064;19;19903;-83
2023/05/15 12:13:20;;;;;;;29.27;17.70;;;;;;;18.87;100.00;99249.00;12201528;19;20014;-83
2023/05/15 12:17:22;;;;;;;23.83;16.30;;;;;;;19.10;100.00;99260.97;12225457;19;20015;-83
2023/05/15 12:21:25;;;;;;;29.52;17.05;;;;;;;19.11;100.00;99256.19;12230420;19;20011;-82
2023/05/15 12:25:27;;;;;;;27.73;17.75;;;;;;;18.87;100.00;99253.75;12205757;19;20030;-84
2023/05/15 12:29:30;;;;;;;24.90;15.60;;;;;;;18.81;100.00;99263.41;12228381;19;20010;-84
2023/05/15 12:33:32;;;;;;;23.52;14.82;;;;;;;18.93;100.00;99257.25;12227896;19;20007;-84
2023/05/15 12:37:35;;;;;;;30.55;18.05;;;;;;;19.10;100.00;99260.97;12201035;19;20024;-83
2023/05/15 12:41:37;;;;;;;24.45;15.60;;;;;;;19.65;100.00;99240.19;12225213;19;20399;-83
2023/05/15 12:45:40;;;;;;;19.42;12.63;;;;;;;21.22;100.00;99245.81;12200220;19;20007;-83
2023/05/15 12:49:42;;;;;;;;;;;;;;;22.03;100.00;99244.78;12227272;19;20074;-83
2023/05/15 12:53:46;;;;;;;19.52;12.73;;;;;;;22.10;100.00;99233.84;12220053;19;19982;-82
2023/05/15 12:57:51;;;;;;;20.83;11.55;;;;;;;23.28;90.42;99232.63;12198358;19;20637;-81
2023/05/15 13:01:54;;;;;;;18.75;11.80;;;;;;;24.54;80.98;99218.63;12214824;19;20496;-81
2023/05/15 13:05:56;;;;;;;16.30;11.63;;;;;;;24.24;77.06;99218.09;12215234;19;20486;-81
2023/05/15 13:10:03;;;;;;;16.42;10.20;;;;;;;23.48;78.02;99216.84;12196875;19;20471;-80
2023/05/15 13:14:09;;;;;;;15.45;10.70;;;;;;;22.98;73.67;99226.34;12216766;19;20325;-80
2023/05/15 13:18:15;;;;;;;15.50;9.85;;;;;;;22.95;75.75;99235.47;12218946;19;20015;-80
2023/05/15 13:22:17;;;;;;;13.82;8.93;;;;;;;22.61;74.80;99237.44;12194085;19;20010;-79
2023/05/15 13:26:19;;;;;;;12.07;9.23;;;;;;;21.58;75.01;99231.34;12211322;19;20046;-81
2023/05/15 13:30:23;;;;;;;12.68;8.77;;;;;;;20.65;76.66;99239.34;12210739;19;20018;-80
2023/05/15 13:34:25;;;;;;;12.60;8.98;;;;;;;19.96;76.78;99254.09;12193409;19;20423;-81
2023/05/15 13:38:28;;;;;;;12.15;8.90;;;;;;;19.73;80.45;99250.56;12217776;19;20027;-80
2023/05/15 13:42:30;;;;;;;13.27;9.23;;;;;;;19.77;81.35;99251.56;12220327;19;20459;-80
2023/05/15 13:46:31;;;;;;;10.00;8.07;;;;;;;19.97;80.33;99241.75;12195850;19;20017;-80
2023/05/15 13:50:35;;;;;;;11.80;7.85;;;;;;;20.43;75.71;99240.28;12221335;19;20017;-81
2023/05/15 13:54:36;;;;;;;9.17;6.93;;;;;;;21.15;73.88;99241.56;12197980;19;20018;-81
2023/05/15 13:58:40;;;;;;;8.32;6.30;;;;;;;22.15;67.73;99247.66;12211978;19;20038;-81
2023/05/15 14:02:43;;;;;;;8.30;5.68;;;;;;;22.51;64.16;99237.84;12217214;19;20010;-81
2023/05/15 14:06:45;;;;;;;8.65;5.95;;;;;;;22.81;60.80;99246.16;12198245;19;20309;-81
2023/05/15 14:10:47;;;;;;;9.37;5.90;;;;;;;22.37;60.91;99255.00;12217563;19;20029;-82
2023/05/15 14:14:50;;;;;;;9.73;6.70;;;;;;;21.72;63.79;99265.59;12214945;19;20003;-81
2023/05/15 14:18:52;;;;;;;8.82;4.88;;;;;;;21.06;62.36;99274.38;12196240;19;20095;-80
2023/05/15 14:22:54;;;;;;;8.38;5.68;;;;;;;20.63;61.91;99278.03;12218164;19;20003;-81
2023/05/15 14:26:56;;;;;;;9.52;5.78;;;;;;;20.11;62.84;99277.13;12220672;19;20027;-80
2023/05/15 14:30:58;;;;;;;11.93;6.53;;;;;;;20.37;64.33;99274.38;12193996;19;20010;-81
2023/05/15 14:35:00;;;;;;;12.25;6.78;;;;;;;20.12;66.05;99274.00;12216777;19;20034;-81
2023/05/15 14:39:03;;;;;;;10.88;6.20;;;;;;;19.84;67.04;99281.84;12221756;19;20007;-80
2023/05/15 14:43:05;;;;;;;9.83;5.90;;;;;;;19.43;69.05;99282.16;12209778;19;20017;-81
2023/05/15 14:47:08;;;;;;;9.50;6.70;;;;;;;19.22;69.06;99279.91;12226807;19;20430;-81
2023/05/15 14:51:11;;;;;;;11.25;6.82;;;;;;;19.22;67.94;99277.13;12227506;19;20015;-80
2023/05/15 14:55:21;;;;;;;9.30;6.10;;;;;;;19.09;68.25;99275.22;12193868;19;20007;-81
2023/05/15 14:59:23;;;;;;;11.07;6.47;;;;;;;18.99;70.75;99281.09;12226122;19;20062;-81
2023/05/15 15:03:25;;;;;;;;;;;;;;;19.06;70.88;99275.88;12214788;19;20074;-80
2023/05/15 15:07:56;;;;;;;12.57;6.38;;;;;;;19.31;69.39;99278.00;12200129;19;19911;-79
2023/05/15 15:12:00;;;;;;;9.82;6.15;;;;;;;19.27;69.19;99274.16;12226009;19;20010;-79
2023/05/15 15:16:01;;;;;;;8.53;5.40;;;;;;;19.19;67.26;99274.97;12201708;19;20011;-81
2023/05/15 15:20:04;;;;;;;7.32;4.70;;;;;;;19.25;65.65;99284.84;12226098;19;20018;-80
2023/05/15 15:24:08;;;;;;;9.10;5.10;;;;;;;19.40;65.61;99293.97;12224707;19;20022;-82
2023/05/15 15:28:12;;;;;;;6.22;4.47;;;;;;;19.39;63.86;99293.13;12210113;19;20015;-80
2023/05/15 15:32:15;;;;;;;6.13;4.50;;;;;;;19.19;62.83;99293.69;12239426;19;20003;-80
2023/05/15 15:36:16;;;;;;;6.80;4.33;;;;;;;18.99;61.68;99295.88;12243856;19;19999;-80
2023/05/15 15:40:19;;;;;;;6.40;4.57;;;;;;;18.68;63.83;99282.66;12218922;19;20010;-80
2023/05/15 15:44:20;;;;;;;5.68;4.03;;;;;;;18.58;64.14;99291.25;12231769;19;20003;-78
2023/05/15 15:48:22;;;;;;;6.55;4.30;;;;;;;18.37;65.13;99298.47;12233887;19;20031;-80
2023/05/15 15:52:25;;;;;;;6.80;4.03;;;;;;;18.22;65.78;99297.66;12212905;19;20095;-81
2023/05/15 15:56:26;;;;;;;6.07;4.20;;;;;;;18.09;67.94;99286.56;12231293;19;20007;-80
2023/05/15 16:00:28;;;;;;;7.55;4.30;;;;;;;17.96;68.36;99285.41;12236044;19;20029;-81
2023/05/15 16:04:30;;;;;;;6.65;4.45;;;;;;;17.95;70.70;99281.00;12193633;19;20020;-81
2023/05/15 16:08:32;;;;;;;6.10;3.90;;;;;;;17.85;71.15;99295.97;12236181;19;20344;-80
2023/05/15 16:12:34;;;;;;;6.25;3.60;;;;;;;17.83;69.24;99294.63;12227246;19;20017;-79
2023/05/15 16:16:35;;;;;;;8.25;3.92;;;;;;;17.77;70.91;99288.31;12225953;19;20007;-80
2023/05/15 16:20:37;;;;;;;6.47;4.35;;;;;;;17.66;72.13;99290.47;12235790;19;20014;-81
2023/05/15 16:24:39;;;;;;;7.00;4.70;;;;;;;17.58;74.97;99277.28;12208325;19;20395;-81
2023/05/15 16:28:41;;;;;;;6.00;4.40;;;;;;;17.57;77.34;99275.59;12236651;19;20042;-80
2023/05/15 16:32:43;;;;;;;10.98;4.75;;;;;;;17.48;76.80;99271.88;12228274;19;20072;-79
2023/05/15 16:36:45;;;;;;;5.85;4.20;;;;;;;17.47;75.51;99273.03;12212738;19;20035;-81
2023/05/15 16:40:48;;;;;;;9.20;4.70;;;;;;;17.49;78.29;99279.09;12239054;19;20018;-80
2023/05/15 16:44:50;;;;;;;7.57;3.83;;;;;;;17.54;80.39;99284.56;12235576;19;20023;-80
2023/05/15 16:48:53;;;;;;;7.93;5.55;;;;;;;17.60;78.29;99294.47;12217171;19;20099;-80
2023/05/15 16:52:55;;;;;;;5.90;3.63;;;;;;;17.67;76.42;99294.91;12236787;19;20044;-80
2023/05/15 16:56:56;;;;;;;4.80;3.75;;;;;;;17.69;73.52;99289.84;12239729;19;20259;-80
2023/05/15 17:00:58;;;;;;;4.77;3.53;;;;;;;17.73;70.50;99290.88;12217324;19;20047;-80
2023/05/15 17:05:00;;;;;;;7.63;4.40;;;;;;;17.76;71.79;99284.69;12250863;19;20022;-80
2023/05/15 17:09:02;;;;;;;6.18;4.32;;;;;;;17.79;71.66;99290.78;12252485;19;20003;-80
2023/05/15 17:13:04;;;;;;;9.38;6.95;;;;;;;17.71;71.12;99292.34;12230435;19;20014;-80
2023/05/15 17:17:06;;;;;;;11.43;4.93;;;;;;;17.64;71.75;99289.13;12251861;19;20014;-81
2023/05/15 17:21:07;;;;;;;8.05;4.40;;;;;;;17.59;71.00;99292.84;12250277;19;20014;-81
2023/05/15 17:25:11;;;;;;;6.97;4.32;;;;;;;17.46;69.42;99290.84;12226521;19;20048;-81
2023/05/15 17:29:13;;;;;;;6.85;4.63;;;;;;;17.38;69.17;99289.63;12249621;19;20010;-80
2023/05/15 17:33:14;;;;;;;8.17;4.83;;;;;;;17.33;69.35;99294.47;12245918;19;20070;-80
2023/05/15 17:37:16;;;;;;;6.43;4.30;;;;;;;17.25;71.77;99302.41;12221228;19;20010;-81
2023/05/15 17:41:18;;;;;;;6.70;4.07;;;;;;;17.21;72.88;99306.91;12245420;19;20006;-81
2023/05/15 17:45:20;;;;;;;7.75;4.97;;;;;;;17.12;72.44;99311.53;12245694;19;20014;-81
2023/05/15 17:49:23;;;;;;;7.95;5.03;;;;;;;17.07;75.08;99320.81;12222841;19;20047;-82
2023/05/15 17:53:25;;;;;;;7.13;4.87;;;;;;;17.14;73.06;99322.38;12246099;19;20044;-82
2023/05/15 17:57:27;;;;;;;8.02;4.47;;;;;;;17.27;73.21;99327.16;12241015;19;20014;-82
2023/05/15 18:01:31;;;;;;;6.68;4.47;;;;;;;17.36;72.94;99330.88;12211844;19;20017;-82
2023/05/15 18:05:33;;;;;;;9.43;5.57;;;;;;;17.39;73.55;99341.41;12239187;19;20010;-82
2023/05/15 18:09:35;;;;;;;9.73;5.18;;;;;;;17.38;72.86;99345.31;12220853;19;20046;-82
2023/05/15 18:13:36;;;;;;;7.53;5.30;;;;;;;17.35;71.97;99347.91;12226278;19;20034;-82
2023/05/15 18:17:38;;;;;;;7.60;4.20;;;;;;;17.35;71.89;99361.84;12235453;19;20046;-81
2023/05/15 18:21:40;;;;;;;7.30;5.13;;;;;;;17.29;74.93;99361.91;12211257;19;20255;-81
2023/05/15 18:25:43;;;;;;;7.68;5.38;;;;;;;17.15;74.33;99369.38;12229020;19;20010;-81
2023/05/15 18:29:45;;;;;;;7.22;5.10;;;;;;;16.96;77.32;99365.84;12227433;19;20635;-81
2023/05/15 18:33:48;;;;;;;9.13;5.50;;;;;;;16.70;80.44;99373.72;12198582;19;20054;-81
2023/05/15 18:37:49;;;;;;;8.43;4.93;;;;;;;16.38;82.43;99373.31;12218798;19;20049;-81
2023/05/15 18:41:52;;;;;;;9.85;5.65;;;;;;;16.07;84.73;99378.44;12221898;19;20034;-82
2023/05/15 18:45:54;;;;;;;12.75;6.68;;;;;;;15.76;87.69;99371.59;12196421;19;20024;-82
2023/05/15 18:49:56;;;;;;;8.50;5.53;;;;;;;15.45;90.17;99388.53;12214409;19;20010;-81